sensor_id;sensor_type;location;lat;lon;timestamp;temperature;humidity
43524;DHT22;29120;52.006;6.020;2023-04-24T00:01:26;10.30;99.90
43524;DHT22;29120;52.006;6.020;2023-04-24T00:03:52;10.30;99.90
43524;DHT22;29120;52.006;6.020;2023-04-24T00:06:17;10.30;99.90
43524;DHT22;29120;52.006;6.020;2023-04-24T00:08:43;10.40;99.90
43524;DHT22;29120;52.006;6.020;2023-04-24T00:11:08;10.40;99.90
43524;DHT22;29120;52.006;6.020;2023-04-24T00:13:34;10.40;99.90
43524;DHT22;29120;52.006;6.020;2023-04-24T00:16:00;10.40;99.90
43524;DHT22;29120;52.006;6.020;2023-04-24T00:18:26;10.40;99.90
43524;DHT22;29120;52.006;6.020;2023-04-24T00:20:51;10.40;99.90
43524;DHT22;29120;52.006;6.020;2023-04-24T00:23:17;10.50;99.90
43524;DHT22;29120;52.006;6.020;2023-04-24T00:25:42;10.40;99.90
43524;DHT22;29120;52.006;6.020;2023-04-24T00:28:08;10.40;99.90
43524;DHT22;29120;52.006;6.020;2023-04-24T00:30:33;10.40;99.90
43524;DHT22;29120;52.006;6.020;2023-04-24T00:32:59;10.40;99.90
43524;DHT22;29120;52.006;6.020;2023-04-24T00:35:24;10.40;99.90
43524;DHT22;29120;52.006;6.020;2023-04-24T00:37:50;10.40;99.90
43524;DHT22;29120;52.006;6.020;2023-04-24T00:40:15;10.40;99.90
43524;DHT22;29120;52.006;6.020;2023-04-24T00:42:41;10.40;99.90
43524;DHT22;29120;52.006;6.020;2023-04-24T00:45:07;10.40;99.90
43524;DHT22;29120;52.006;6.020;2023-04-24T00:47:32;10.40;99.90
43524;DHT22;29120;52.006;6.020;2023-04-24T00:49:58;10.40;99.90
43524;DHT22;29120;52.006;6.020;2023-04-24T00:52:25;10.40;99.90
43524;DHT22;29120;52.006;6.020;2023-04-24T00:54:50;10.40;99.90
43524;DHT22;29120;52.006;6.020;2023-04-24T00:57:16;10.30;99.90
43524;DHT22;29120;52.006;6.020;2023-04-24T00:59:42;10.30;99.90
43524;DHT22;29120;52.006;6.020;2023-04-24T01:02:08;10.30;99.90
43524;DHT22;29120;52.006;6.020;2023-04-24T01:04:35;10.30;99.90
43524;DHT22;29120;52.006;6.020;2023-04-24T01:07:00;10.20;99.90
43524;DHT22;29120;52.006;6.020;2023-04-24T01:09:26;10.20;99.90
43524;DHT22;29120;52.006;6.020;2023-04-24T01:11:51;10.20;99.90
43524;DHT22;29120;52.006;6.020;2023-04-24T01:14:18;10.20;99.90
43524;DHT22;29120;52.006;6.020;2023-04-24T01:16:43;10.20;99.90
43524;DHT22;29120;52.006;6.020;2023-04-24T01:19:09;10.20;99.90
43524;DHT22;29120;52.006;6.020;2023-04-24T01:21:36;10.20;99.90
43524;DHT22;29120;52.006;6.020;2023-04-24T01:24:02;10.20;99.90
43524;DHT22;29120;52.006;6.020;2023-04-24T01:26:27;10.20;99.90
43524;DHT22;29120;52.006;6.020;2023-04-24T01:28:53;10.20;99.90
43524;DHT22;29120;52.006;6.020;2023-04-24T01:31:18;10.20;99.90
43524;DHT22;29120;52.006;6.020;2023-04-24T01:33:44;10.20;99.90
43524;DHT22;29120;52.006;6.020;2023-04-24T01:36:10;10.20;99.90
43524;DHT22;29120;52.006;6.020;2023-04-24T01:38:36;10.20;99.90
43524;DHT22;29120;52.006;6.020;2023-04-24T01:41:01;10.20;99.90
43524;DHT22;29120;52.006;6.020;2023-04-24T01:43:27;10.20;99.90
43524;DHT22;29120;52.006;6.020;2023-04-24T01:45:53;10.20;99.90
43524;DHT22;29120;52.006;6.020;2023-04-24T01:48:18;10.20;99.90
43524;DHT22;29120;52.006;6.020;2023-04-24T01:50:44;10.20;99.90
43524;DHT22;29120;52.006;6.020;2023-04-24T01:53:09;10.20;99.90
43524;DHT22;29120;52.006;6.020;2023-04-24T01:55:35;10.20;99.90
43524;DHT22;29120;52.006;6.020;2023-04-24T01:58:00;10.20;99.90
43524;DHT22;29120;52.006;6.020;2023-04-24T02:00:26;10.20;99.90
43524;DHT22;29120;52.006;6.020;2023-04-24T02:02:51;10.20;99.90
43524;DHT22;29120;52.006;6.020;2023-04-24T02:05:17;10.30;99.90
43524;DHT22;29120;52.006;6.020;2023-04-24T02:07:42;10.30;99.90
43524;DHT22;29120;52.006;6.020;2023-04-24T02:10:08;10.30;99.90
43524;DHT22;29120;52.006;6.020;2023-04-24T02:12:34;10.30;99.90
43524;DHT22;29120;52.006;6.020;2023-04-24T02:14:59;10.30;99.90
43524;DHT22;29120;52.006;6.020;2023-04-24T02:17:25;10.30;99.90
43524;DHT22;29120;52.006;6.020;2023-04-24T02:19:51;10.30;99.90
43524;DHT22;29120;52.006;6.020;2023-04-24T02:22:16;10.30;99.90
43524;DHT22;29120;52.006;6.020;2023-04-24T02:24:42;10.20;99.90
43524;DHT22;29120;52.006;6.020;2023-04-24T02:27:07;10.30;99.90
43524;DHT22;29120;52.006;6.020;2023-04-24T02:29:32;10.20;99.90
43524;DHT22;29120;52.006;6.020;2023-04-24T02:31:58;10.20;99.90
43524;DHT22;29120;52.006;6.020;2023-04-24T02:34:23;10.20;99.90
43524;DHT22;29120;52.006;6.020;2023-04-24T02:36:49;10.20;99.90
43524;DHT22;29120;52.006;6.020;2023-04-24T02:39:15;10.20;99.90
43524;DHT22;29120;52.006;6.020;2023-04-24T02:41:42;10.10;99.90
43524;DHT22;29120;52.006;6.020;2023-04-24T02:44:07;10.10;99.90
43524;DHT22;29120;52.006;6.020;2023-04-24T02:46:33;10.10;99.90
43524;DHT22;29120;52.006;6.020;2023-04-24T02:48:58;10.10;99.90
43524;DHT22;29120;52.006;6.020;2023-04-24T02:51:24;10.10;99.90
43524;DHT22;29120;52.006;6.020;2023-04-24T02:53:50;10.10;99.90
43524;DHT22;29120;52.006;6.020;2023-04-24T02:56:15;10.10;99.90
43524;DHT22;29120;52.006;6.020;2023-04-24T02:58:41;10.10;99.90
43524;DHT22;29120;52.006;6.020;2023-04-24T03:01:07;10.00;99.90
43524;DHT22;29120;52.006;6.020;2023-04-24T03:03:33;10.10;99.90
43524;DHT22;29120;52.006;6.020;2023-04-24T03:05:58;10.10;99.90
43524;DHT22;29120;52.006;6.020;2023-04-24T03:08:24;10.00;99.90
43524;DHT22;29120;52.006;6.020;2023-04-24T03:10:49;10.00;99.90
43524;DHT22;29120;52.006;6.020;2023-04-24T03:13:15;10.00;99.90
43524;DHT22;29120;52.006;6.020;2023-04-24T03:15:41;10.00;99.90
43524;DHT22;29120;52.006;6.020;2023-04-24T03:18:06;10.00;99.90
43524;DHT22;29120;52.006;6.020;2023-04-24T03:20:32;10.00;99.90
43524;DHT22;29120;52.006;6.020;2023-04-24T03:22:57;10.00;99.90
43524;DHT22;29120;52.006;6.020;2023-04-24T03:25:23;10.00;99.90
43524;DHT22;29120;52.006;6.020;2023-04-24T03:27:48;10.00;99.90
43524;DHT22;29120;52.006;6.020;2023-04-24T03:30:14;10.00;99.90
43524;DHT22;29120;52.006;6.020;2023-04-24T03:32:39;10.00;99.90
43524;DHT22;29120;52.006;6.020;2023-04-24T03:35:06;10.00;99.90
43524;DHT22;29120;52.006;6.020;2023-04-24T03:37:32;10.00;99.90
43524;DHT22;29120;52.006;6.020;2023-04-24T03:39:57;9.90;99.90
43524;DHT22;29120;52.006;6.020;2023-04-24T03:42:23;9.90;99.90
43524;DHT22;29120;52.006;6.020;2023-04-24T03:44:48;9.90;99.90
43524;DHT22;29120;52.006;6.020;2023-04-24T03:47:14;9.80;99.90
43524;DHT22;29120;52.006;6.020;2023-04-24T03:49:39;9.80;99.90
43524;DHT22;29120;52.006;6.020;2023-04-24T03:52:05;9.80;99.90
43524;DHT22;29120;52.006;6.020;2023-04-24T03:54:30;9.80;99.90
43524;DHT22;29120;52.006;6.020;2023-04-24T03:56:55;9.80;99.90
43524;DHT22;29120;52.006;6.020;2023-04-24T03:59:21;9.80;99.90
43524;DHT22;29120;52.006;6.020;2023-04-24T04:01:47;9.80;99.90
43524;DHT22;29120;52.006;6.020;2023-04-24T04:04:12;9.80;99.90
43524;DHT22;29120;52.006;6.020;2023-04-24T04:06:37;9.70;99.90
43524;DHT22;29120;52.006;6.020;2023-04-24T04:09:03;9.70;99.90
43524;DHT22;29120;52.006;6.020;2023-04-24T04:11:29;9.80;99.90
43524;DHT22;29120;52.006;6.020;2023-04-24T04:13:55;9.80;99.90
43524;DHT22;29120;52.006;6.020;2023-04-24T04:16:22;9.70;99.90
43524;DHT22;29120;52.006;6.020;2023-04-24T04:18:47;9.70;99.90
43524;DHT22;29120;52.006;6.020;2023-04-24T04:21:13;9.70;99.90
43524;DHT22;29120;52.006;6.020;2023-04-24T04:23:38;9.80;99.90
43524;DHT22;29120;52.006;6.020;2023-04-24T04:26:05;9.70;99.90
43524;DHT22;29120;52.006;6.020;2023-04-24T04:28:31;9.70;99.90
43524;DHT22;29120;52.006;6.020;2023-04-24T04:30:57;9.70;99.90
43524;DHT22;29120;52.006;6.020;2023-04-24T04:33:23;9.70;99.90
43524;DHT22;29120;52.006;6.020;2023-04-24T04:35:48;9.60;99.90
43524;DHT22;29120;52.006;6.020;2023-04-24T04:38:15;9.60;99.90
43524;DHT22;29120;52.006;6.020;2023-04-24T04:40:42;9.60;99.90
43524;DHT22;29120;52.006;6.020;2023-04-24T04:43:07;9.60;99.90
43524;DHT22;29120;52.006;6.020;2023-04-24T04:45:33;9.50;99.90
43524;DHT22;29120;52.006;6.020;2023-04-24T04:47:59;9.60;99.90
43524;DHT22;29120;52.006;6.020;2023-04-24T04:50:28;9.50;99.90
43524;DHT22;29120;52.006;6.020;2023-04-24T04:52:54;9.40;99.90
43524;DHT22;29120;52.006;6.020;2023-04-24T04:55:19;9.40;99.90
43524;DHT22;29120;52.006;6.020;2023-04-24T04:57:45;9.40;99.90
43524;DHT22;29120;52.006;6.020;2023-04-24T05:00:11;9.40;99.90
43524;DHT22;29120;52.006;6.020;2023-04-24T05:02:37;9.40;99.90
43524;DHT22;29120;52.006;6.020;2023-04-24T05:05:03;9.40;99.90
43524;DHT22;29120;52.006;6.020;2023-04-24T05:07:28;9.40;99.90
43524;DHT22;29120;52.006;6.020;2023-04-24T05:09:54;9.30;99.90
43524;DHT22;29120;52.006;6.020;2023-04-24T05:12:19;9.30;99.90
43524;DHT22;29120;52.006;6.020;2023-04-24T05:14:45;9.30;99.90
43524;DHT22;29120;52.006;6.020;2023-04-24T05:17:10;9.30;99.90
43524;DHT22;29120;52.006;6.020;2023-04-24T05:19:36;9.30;99.90
43524;DHT22;29120;52.006;6.020;2023-04-24T05:22:03;9.30;99.90
43524;DHT22;29120;52.006;6.020;2023-04-24T05:24:32;9.30;99.90
43524;DHT22;29120;52.006;6.020;2023-04-24T05:26:58;9.20;99.90
43524;DHT22;29120;52.006;6.020;2023-04-24T05:29:23;9.20;99.90
43524;DHT22;29120;52.006;6.020;2023-04-24T05:31:49;9.30;99.90
43524;DHT22;29120;52.006;6.020;2023-04-24T05:34:15;9.30;99.90
43524;DHT22;29120;52.006;6.020;2023-04-24T05:36:41;9.30;99.90
43524;DHT22;29120;52.006;6.020;2023-04-24T05:39:08;9.20;99.90
43524;DHT22;29120;52.006;6.020;2023-04-24T05:41:33;9.30;99.90
43524;DHT22;29120;52.006;6.020;2023-04-24T05:43:59;9.20;99.90
43524;DHT22;29120;52.006;6.020;2023-04-24T05:46:24;9.30;99.90
43524;DHT22;29120;52.006;6.020;2023-04-24T05:48:50;9.30;99.90
43524;DHT22;29120;52.006;6.020;2023-04-24T05:51:16;9.30;99.90
43524;DHT22;29120;52.006;6.020;2023-04-24T05:53:41;9.40;99.90
43524;DHT22;29120;52.006;6.020;2023-04-24T05:56:07;9.40;99.90
43524;DHT22;29120;52.006;6.020;2023-04-24T05:58:32;9.50;99.90
43524;DHT22;29120;52.006;6.020;2023-04-24T06:00:57;9.60;99.90
43524;DHT22;29120;52.006;6.020;2023-04-24T06:03:24;9.60;99.90
43524;DHT22;29120;52.006;6.020;2023-04-24T06:05:50;9.70;99.90
43524;DHT22;29120;52.006;6.020;2023-04-24T06:08:16;9.80;99.90
43524;DHT22;29120;52.006;6.020;2023-04-24T06:10:41;9.90;99.90
43524;DHT22;29120;52.006;6.020;2023-04-24T06:13:09;10.00;99.90
43524;DHT22;29120;52.006;6.020;2023-04-24T06:15:35;10.00;99.90
43524;DHT22;29120;52.006;6.020;2023-04-24T06:18:00;10.00;99.90
43524;DHT22;29120;52.006;6.020;2023-04-24T06:20:26;10.10;99.90
43524;DHT22;29120;52.006;6.020;2023-04-24T06:22:51;10.10;99.90
43524;DHT22;29120;52.006;6.020;2023-04-24T06:25:17;10.10;99.90
43524;DHT22;29120;52.006;6.020;2023-04-24T06:27:42;10.20;99.90
43524;DHT22;29120;52.006;6.020;2023-04-24T06:30:08;10.20;99.90
43524;DHT22;29120;52.006;6.020;2023-04-24T06:32:34;10.20;99.90
43524;DHT22;29120;52.006;6.020;2023-04-24T06:34:59;10.20;99.90
43524;DHT22;29120;52.006;6.020;2023-04-24T06:37:25;10.20;99.90
43524;DHT22;29120;52.006;6.020;2023-04-24T06:39:51;10.30;99.90
43524;DHT22;29120;52.006;6.020;2023-04-24T06:42:16;10.30;99.90
43524;DHT22;29120;52.006;6.020;2023-04-24T06:44:41;10.30;99.90
43524;DHT22;29120;52.006;6.020;2023-04-24T06:47:08;10.30;99.90
43524;DHT22;29120;52.006;6.020;2023-04-24T06:49:34;10.40;99.90
43524;DHT22;29120;52.006;6.020;2023-04-24T06:52:00;10.40;99.90
43524;DHT22;29120;52.006;6.020;2023-04-24T06:54:25;10.40;99.90
43524;DHT22;29120;52.006;6.020;2023-04-24T06:56:51;10.50;99.90
43524;DHT22;29120;52.006;6.020;2023-04-24T06:59:17;10.50;99.90
43524;DHT22;29120;52.006;6.020;2023-04-24T07:01:42;10.50;99.90
43524;DHT22;29120;52.006;6.020;2023-04-24T07:04:08;10.50;99.90
43524;DHT22;29120;52.006;6.020;2023-04-24T07:06:33;10.60;99.90
43524;DHT22;29120;52.006;6.020;2023-04-24T07:09:00;10.60;99.90
43524;DHT22;29120;52.006;6.020;2023-04-24T07:11:26;10.70;99.90
43524;DHT22;29120;52.006;6.020;2023-04-24T07:13:54;10.80;99.90
43524;DHT22;29120;52.006;6.020;2023-04-24T07:16:20;10.80;99.90
43524;DHT22;29120;52.006;6.020;2023-04-24T07:18:45;11.20;99.90
43524;DHT22;29120;52.006;6.020;2023-04-24T07:21:11;10.90;99.90
43524;DHT22;29120;52.006;6.020;2023-04-24T07:23:36;10.90;99.90
43524;DHT22;29120;52.006;6.020;2023-04-24T07:26:02;10.90;99.90
43524;DHT22;29120;52.006;6.020;2023-04-24T07:28:27;10.80;99.90
43524;DHT22;29120;52.006;6.020;2023-04-24T07:30:56;10.80;99.90
43524;DHT22;29120;52.006;6.020;2023-04-24T07:33:22;10.80;99.90
43524;DHT22;29120;52.006;6.020;2023-04-24T07:35:47;10.70;99.90
43524;DHT22;29120;52.006;6.020;2023-04-24T07:38:13;10.70;99.90
43524;DHT22;29120;52.006;6.020;2023-04-24T07:40:38;10.60;99.90
43524;DHT22;29120;52.006;6.020;2023-04-24T07:43:04;10.60;99.90
43524;DHT22;29120;52.006;6.020;2023-04-24T07:45:30;10.50;99.90
43524;DHT22;29120;52.006;6.020;2023-04-24T07:47:56;10.40;99.90
43524;DHT22;29120;52.006;6.020;2023-04-24T07:50:22;10.40;99.90
43524;DHT22;29120;52.006;6.020;2023-04-24T07:52:47;10.40;99.90
43524;DHT22;29120;52.006;6.020;2023-04-24T07:55:13;10.30;99.90
43524;DHT22;29120;52.006;6.020;2023-04-24T07:57:38;10.30;99.90
43524;DHT22;29120;52.006;6.020;2023-04-24T08:00:04;10.30;99.90
43524;DHT22;29120;52.006;6.020;2023-04-24T08:02:30;10.30;99.90
43524;DHT22;29120;52.006;6.020;2023-04-24T08:04:56;10.20;99.90
43524;DHT22;29120;52.006;6.020;2023-04-24T08:07:22;10.20;99.90
43524;DHT22;29120;52.006;6.020;2023-04-24T08:09:48;10.10;99.90
43524;DHT22;29120;52.006;6.020;2023-04-24T08:12:13;10.10;99.90
43524;DHT22;29120;52.006;6.020;2023-04-24T08:14:39;10.00;99.90
43524;DHT22;29120;52.006;6.020;2023-04-24T08:17:04;10.00;99.90
43524;DHT22;29120;52.006;6.020;2023-04-24T08:19:30;10.00;99.90
43524;DHT22;29120;52.006;6.020;2023-04-24T08:21:55;10.00;99.90
43524;DHT22;29120;52.006;6.020;2023-04-24T08:24:21;10.00;99.90
43524;DHT22;29120;52.006;6.020;2023-04-24T08:26:47;10.00;99.90
43524;DHT22;29120;52.006;6.020;2023-04-24T08:29:15;10.00;99.90
43524;DHT22;29120;52.006;6.020;2023-04-24T08:31:41;10.00;99.90
43524;DHT22;29120;52.006;6.020;2023-04-24T08:34:06;9.90;99.90
43524;DHT22;29120;52.006;6.020;2023-04-24T08:36:32;9.90;99.90
43524;DHT22;29120;52.006;6.020;2023-04-24T08:38:57;9.80;99.90
43524;DHT22;29120;52.006;6.020;2023-04-24T08:41:23;9.80;99.90
43524;DHT22;29120;52.006;6.020;2023-04-24T08:43:51;9.80;99.90
43524;DHT22;29120;52.006;6.020;2023-04-24T08:46:16;9.80;99.90
43524;DHT22;29120;52.006;6.020;2023-04-24T08:48:43;9.80;99.90
43524;DHT22;29120;52.006;6.020;2023-04-24T08:51:09;9.80;99.90
43524;DHT22;29120;52.006;6.020;2023-04-24T08:53:35;9.90;99.90
43524;DHT22;29120;52.006;6.020;2023-04-24T08:56:00;10.00;99.90
43524;DHT22;29120;52.006;6.020;2023-04-24T08:58:27;10.00;99.90
43524;DHT22;29120;52.006;6.020;2023-04-24T09:00:55;10.00;99.90
43524;DHT22;29120;52.006;6.020;2023-04-24T09:03:21;10.00;99.90
43524;DHT22;29120;52.006;6.020;2023-04-24T09:05:47;10.00;99.90
43524;DHT22;29120;52.006;6.020;2023-04-24T09:08:13;10.10;99.90
43524;DHT22;29120;52.006;6.020;2023-04-24T09:10:39;10.10;99.90
43524;DHT22;29120;52.006;6.020;2023-04-24T09:13:05;10.10;99.90
43524;DHT22;29120;52.006;6.020;2023-04-24T09:15:31;10.20;99.90
43524;DHT22;29120;52.006;6.020;2023-04-24T09:17:56;10.20;99.90
43524;DHT22;29120;52.006;6.020;2023-04-24T09:20:22;10.20;99.90
43524;DHT22;29120;52.006;6.020;2023-04-24T09:22:47;10.20;99.90
43524;DHT22;29120;52.006;6.020;2023-04-24T09:25:13;10.10;99.90
43524;DHT22;29120;52.006;6.020;2023-04-24T09:27:42;10.10;99.90
43524;DHT22;29120;52.006;6.020;2023-04-24T09:30:09;10.10;99.90
43524;DHT22;29120;52.006;6.020;2023-04-24T09:32:34;10.00;99.90
43524;DHT22;29120;52.006;6.020;2023-04-24T09:35:07;10.00;99.90
43524;DHT22;29120;52.006;6.020;2023-04-24T09:37:40;10.10;99.90
43524;DHT22;29120;52.006;6.020;2023-04-24T09:40:07;10.10;99.90
43524;DHT22;29120;52.006;6.020;2023-04-24T09:42:33;10.20;99.90
43524;DHT22;29120;52.006;6.020;2023-04-24T09:44:58;10.20;99.90
43524;DHT22;29120;52.006;6.020;2023-04-24T09:47:24;10.10;99.90
43524;DHT22;29120;52.006;6.020;2023-04-24T09:49:49;10.10;99.90
43524;DHT22;29120;52.006;6.020;2023-04-24T09:52:15;10.50;99.90
43524;DHT22;29120;52.006;6.020;2023-04-24T09:54:40;10.20;99.90
43524;DHT22;29120;52.006;6.020;2023-04-24T09:57:08;10.30;99.90
43524;DHT22;29120;52.006;6.020;2023-04-24T09:59:34;10.50;99.90
43524;DHT22;29120;52.006;6.020;2023-04-24T10:02:00;10.60;99.90
43524;DHT22;29120;52.006;6.020;2023-04-24T10:04:26;10.70;99.90
43524;DHT22;29120;52.006;6.020;2023-04-24T10:06:52;10.80;99.90
43524;DHT22;29120;52.006;6.020;2023-04-24T10:09:19;10.90;99.90
43524;DHT22;29120;52.006;6.020;2023-04-24T10:11:45;11.20;99.90
43524;DHT22;29120;52.006;6.020;2023-04-24T10:14:15;11.30;99.90
43524;DHT22;29120;52.006;6.020;2023-04-24T10:16:41;11.80;99.90
43524;DHT22;29120;52.006;6.020;2023-04-24T10:19:07;11.70;99.90
43524;DHT22;29120;52.006;6.020;2023-04-24T10:21:33;11.90;99.90
43524;DHT22;29120;52.006;6.020;2023-04-24T10:23:59;11.90;99.90
43524;DHT22;29120;52.006;6.020;2023-04-24T10:26:25;12.10;99.90
43524;DHT22;29120;52.006;6.020;2023-04-24T10:28:51;12.30;99.90
43524;DHT22;29120;52.006;6.020;2023-04-24T10:31:17;12.80;99.90
43524;DHT22;29120;52.006;6.020;2023-04-24T10:33:43;13.40;99.90
43524;DHT22;29120;52.006;6.020;2023-04-24T10:36:10;13.70;99.90
43524;DHT22;29120;52.006;6.020;2023-04-24T10:38:37;13.80;99.90
43524;DHT22;29120;52.006;6.020;2023-04-24T10:41:07;13.60;99.90
43524;DHT22;29120;52.006;6.020;2023-04-24T10:43:33;13.40;99.90
43524;DHT22;29120;52.006;6.020;2023-04-24T10:46:03;13.10;99.90
43524;DHT22;29120;52.006;6.020;2023-04-24T10:48:28;12.60;99.90
43524;DHT22;29120;52.006;6.020;2023-04-24T10:50:54;12.30;99.90
43524;DHT22;29120;52.006;6.020;2023-04-24T10:53:20;12.00;99.90
43524;DHT22;29120;52.006;6.020;2023-04-24T10:55:52;11.80;99.90
43524;DHT22;29120;52.006;6.020;2023-04-24T10:58:22;11.70;99.90
43524;DHT22;29120;52.006;6.020;2023-04-24T11:00:57;11.60;99.90
43524;DHT22;29120;52.006;6.020;2023-04-24T11:03:30;11.50;99.90
43524;DHT22;29120;52.006;6.020;2023-04-24T11:05:56;11.50;99.90
43524;DHT22;29120;52.006;6.020;2023-04-24T11:08:23;11.50;99.90
43524;DHT22;29120;52.006;6.020;2023-04-24T11:10:55;11.50;99.90
43524;DHT22;29120;52.006;6.020;2023-04-24T11:13:22;11.60;99.90
43524;DHT22;29120;52.006;6.020;2023-04-24T11:18:39;11.90;99.90
43524;DHT22;29120;52.006;6.020;2023-04-24T11:21:28;11.90;99.90
43524;DHT22;29120;52.006;6.020;2023-04-24T11:23:51;11.90;99.90
43524;DHT22;29120;52.006;6.020;2023-04-24T11:26:23;11.70;99.90
43524;DHT22;29120;52.006;6.020;2023-04-24T11:29:06;11.50;99.90
43524;DHT22;29120;52.006;6.020;2023-04-24T11:34:08;11.80;99.90
43524;DHT22;29120;52.006;6.020;2023-04-24T11:36:34;12.50;99.90
43524;DHT22;29120;52.006;6.020;2023-04-24T11:39:00;13.20;99.90
43524;DHT22;29120;52.006;6.020;2023-04-24T11:41:26;13.50;99.90
43524;DHT22;29120;52.006;6.020;2023-04-24T11:43:52;13.40;99.90
43524;DHT22;29120;52.006;6.020;2023-04-24T11:46:18;13.20;99.90
43524;DHT22;29120;52.006;6.020;2023-04-24T11:48:45;12.90;99.90
43524;DHT22;29120;52.006;6.020;2023-04-24T11:51:12;12.60;99.90
43524;DHT22;29120;52.006;6.020;2023-04-24T11:53:37;12.40;99.90
43524;DHT22;29120;52.006;6.020;2023-04-24T11:56:03;12.50;99.90
43524;DHT22;29120;52.006;6.020;2023-04-24T11:58:34;12.40;99.90
43524;DHT22;29120;52.006;6.020;2023-04-24T12:00:59;12.40;99.90
43524;DHT22;29120;52.006;6.020;2023-04-24T12:03:26;12.20;99.90
43524;DHT22;29120;52.006;6.020;2023-04-24T12:05:52;12.10;99.90
43524;DHT22;29120;52.006;6.020;2023-04-24T12:08:27;12.10;99.90
43524;DHT22;29120;52.006;6.020;2023-04-24T12:10:52;11.90;99.90
43524;DHT22;29120;52.006;6.020;2023-04-24T12:13:18;11.70;99.90
43524;DHT22;29120;52.006;6.020;2023-04-24T12:15:43;11.50;99.90
43524;DHT22;29120;52.006;6.020;2023-04-24T12:18:11;11.30;99.90
43524;DHT22;29120;52.006;6.020;2023-04-24T12:20:36;11.10;99.90
43524;DHT22;29120;52.006;6.020;2023-04-24T12:23:02;11.00;99.90
43524;DHT22;29120;52.006;6.020;2023-04-24T12:25:28;11.00;99.90
43524;DHT22;29120;52.006;6.020;2023-04-24T12:27:55;11.20;99.90
43524;DHT22;29120;52.006;6.020;2023-04-24T12:30:21;11.80;99.90
43524;DHT22;29120;52.006;6.020;2023-04-24T12:32:47;12.80;99.90
43524;DHT22;29120;52.006;6.020;2023-04-24T12:35:14;14.00;99.90
43524;DHT22;29120;52.006;6.020;2023-04-24T12:37:44;14.50;99.90
43524;DHT22;29120;52.006;6.020;2023-04-24T12:40:10;14.90;99.90
43524;DHT22;29120;52.006;6.020;2023-04-24T12:42:41;14.50;99.90
43524;DHT22;29120;52.006;6.020;2023-04-24T12:45:06;14.40;99.90
43524;DHT22;29120;52.006;6.020;2023-04-24T12:47:33;14.40;99.90
43524;DHT22;29120;52.006;6.020;2023-04-24T12:49:59;14.50;99.90
43524;DHT22;29120;52.006;6.020;2023-04-24T12:52:26;14.50;99.90
43524;DHT22;29120;52.006;6.020;2023-04-24T12:54:55;14.30;99.90
43524;DHT22;29120;52.006;6.020;2023-04-24T12:57:24;14.10;99.90
43524;DHT22;29120;52.006;6.020;2023-04-24T12:59:50;13.80;99.90
43524;DHT22;29120;52.006;6.020;2023-04-24T13:02:16;13.50;99.90
43524;DHT22;29120;52.006;6.020;2023-04-24T13:04:46;13.30;99.90
43524;DHT22;29120;52.006;6.020;2023-04-24T13:07:12;13.10;99.90
43524;DHT22;29120;52.006;6.020;2023-04-24T13:09:38;12.90;99.90
43524;DHT22;29120;52.006;6.020;2023-04-24T13:12:03;12.60;99.90
43524;DHT22;29120;52.006;6.020;2023-04-24T13:14:31;12.80;99.90
43524;DHT22;29120;52.006;6.020;2023-04-24T13:16:56;13.10;99.90
43524;DHT22;29120;52.006;6.020;2023-04-24T13:19:23;13.60;99.90
43524;DHT22;29120;52.006;6.020;2023-04-24T13:21:49;13.60;99.90
43524;DHT22;29120;52.006;6.020;2023-04-24T13:24:15;13.60;99.90
43524;DHT22;29120;52.006;6.020;2023-04-24T13:26:41;13.50;99.90
43524;DHT22;29120;52.006;6.020;2023-04-24T13:29:06;13.30;99.90
43524;DHT22;29120;52.006;6.020;2023-04-24T13:31:32;13.20;99.90
43524;DHT22;29120;52.006;6.020;2023-04-24T13:33:57;13.10;99.90
43524;DHT22;29120;52.006;6.020;2023-04-24T13:36:22;12.90;99.90
43524;DHT22;29120;52.006;6.020;2023-04-24T13:38:48;12.60;99.90
43524;DHT22;29120;52.006;6.020;2023-04-24T13:41:13;12.30;99.90
43524;DHT22;29120;52.006;6.020;2023-04-24T13:43:39;12.10;99.90
43524;DHT22;29120;52.006;6.020;2023-04-24T13:46:06;11.90;99.90
43524;DHT22;29120;52.006;6.020;2023-04-24T13:48:32;11.80;99.90
43524;DHT22;29120;52.006;6.020;2023-04-24T13:50:57;11.80;99.90
43524;DHT22;29120;52.006;6.020;2023-04-24T13:53:23;11.80;99.90
43524;DHT22;29120;52.006;6.020;2023-04-24T13:55:48;11.80;99.90
43524;DHT22;29120;52.006;6.020;2023-04-24T13:58:14;11.80;99.90
43524;DHT22;29120;52.006;6.020;2023-04-24T14:00:40;11.70;99.90
43524;DHT22;29120;52.006;6.020;2023-04-24T14:03:05;11.60;99.90
43524;DHT22;29120;52.006;6.020;2023-04-24T14:05:31;11.50;99.90
43524;DHT22;29120;52.006;6.020;2023-04-24T14:07:56;11.40;99.90
43524;DHT22;29120;52.006;6.020;2023-04-24T14:10:22;11.40;99.90
43524;DHT22;29120;52.006;6.020;2023-04-24T14:12:47;11.50;99.90
43524;DHT22;29120;52.006;6.020;2023-04-24T14:15:13;12.20;99.90
43524;DHT22;29120;52.006;6.020;2023-04-24T14:17:39;13.20;99.90
43524;DHT22;29120;52.006;6.020;2023-04-24T14:20:05;14.00;99.90
43524;DHT22;29120;52.006;6.020;2023-04-24T14:22:30;14.50;99.90
43524;DHT22;29120;52.006;6.020;2023-04-24T14:24:56;14.70;99.90
43524;DHT22;29120;52.006;6.020;2023-04-24T14:27:21;14.70;99.90
43524;DHT22;29120;52.006;6.020;2023-04-24T14:29:47;14.40;99.90
43524;DHT22;29120;52.006;6.020;2023-04-24T14:32:12;14.10;99.90
43524;DHT22;29120;52.006;6.020;2023-04-24T14:34:40;13.70;99.90
43524;DHT22;29120;52.006;6.020;2023-04-24T14:37:05;13.40;99.70
43524;DHT22;29120;52.006;6.020;2023-04-24T14:39:31;13.20;99.80
43524;DHT22;29120;52.006;6.020;2023-04-24T14:41:56;13.20;99.90
43524;DHT22;29120;52.006;6.020;2023-04-24T14:44:22;13.40;99.90
43524;DHT22;29120;52.006;6.020;2023-04-24T14:46:48;13.30;99.70
43524;DHT22;29120;52.006;6.020;2023-04-24T14:49:13;13.20;99.60
43524;DHT22;29120;52.006;6.020;2023-04-24T14:51:39;12.90;99.00
43524;DHT22;29120;52.006;6.020;2023-04-24T14:54:06;12.70;98.90
43524;DHT22;29120;52.006;6.020;2023-04-24T14:56:31;12.50;98.70
43524;DHT22;29120;52.006;6.020;2023-04-24T14:58:57;12.30;97.80
43524;DHT22;29120;52.006;6.020;2023-04-24T15:01:22;12.20;98.20
43524;DHT22;29120;52.006;6.020;2023-04-24T15:03:49;12.10;98.10
43524;DHT22;29120;52.006;6.020;2023-04-24T15:06:15;12.20;98.20
43524;DHT22;29120;52.006;6.020;2023-04-24T15:08:40;12.20;97.40
43524;DHT22;29120;52.006;6.020;2023-04-24T15:11:06;12.30;97.10
43524;DHT22;29120;52.006;6.020;2023-04-24T15:13:31;12.40;96.90
43524;DHT22;29120;52.006;6.020;2023-04-24T15:15:57;12.40;97.00
43524;DHT22;29120;52.006;6.020;2023-04-24T15:18:22;12.50;96.90
43524;DHT22;29120;52.006;6.020;2023-04-24T15:20:48;12.60;96.90
43524;DHT22;29120;52.006;6.020;2023-04-24T15:23:13;12.70;96.70
43524;DHT22;29120;52.006;6.020;2023-04-24T15:25:39;12.80;96.80
43524;DHT22;29120;52.006;6.020;2023-04-24T15:28:04;12.80;96.80
43524;DHT22;29120;52.006;6.020;2023-04-24T15:30:32;12.80;96.80